createdAt,value
2023-04-09T00:00:40.597Z,91.22
2023-04-09T00:03:42.799Z,81.65
2023-04-09T00:06:45.195Z,86.88
2023-04-09T00:09:47.268Z,87.85
2023-04-09T00:12:49.477Z,84.75
2023-04-09T00:15:52.609Z,92.63
2023-04-09T00:18:54.762Z,84.30
2023-04-09T00:21:57.088Z,88.00
2023-04-09T00:24:59.214Z,88.60
2023-04-09T00:28:02.693Z,84.38
2023-04-09T00:31:05.837Z,87.03
2023-04-09T00:34:08.005Z,89.38
2023-04-09T00:37:10.019Z,91.70
2023-04-09T00:40:13.475Z,92.15
2023-04-09T00:43:16.252Z,83.10
2023-04-09T00:46:18.990Z,85.35
2023-04-09T00:49:22.781Z,96.32
2023-04-09T00:52:25.970Z,86.97
2023-04-09T00:55:29.329Z,94.93
2023-04-09T00:58:31.688Z,90.70
2023-04-09T01:01:33.930Z,76.35
2023-04-09T01:04:37.027Z,86.38
2023-04-09T01:07:46.188Z,74.93
2023-04-09T01:11:03.659Z,73.90
2023-04-09T01:14:19.982Z,79.15
2023-04-09T01:17:33.846Z,69.97
2023-04-09T01:20:40.965Z,82.50
2023-04-09T01:24:01.439Z,75.10
2023-04-09T01:27:13.286Z,84.47
2023-04-09T01:30:27.201Z,73.53
2023-04-09T01:33:31.505Z,75.85
2023-04-09T01:36:35.992Z,70.30
2023-04-09T01:39:39.269Z,75.10
2023-04-09T01:42:42.516Z,67.15
2023-04-09T01:45:45.964Z,65.65
2023-04-09T01:48:48.885Z,65.22
2023-04-09T01:51:51.688Z,62.00
2023-04-09T01:54:53.787Z,66.93
2023-04-09T01:57:55.923Z,62.75
2023-04-09T02:01:23.844Z,63.47
2023-04-09T02:04:40.815Z,60.20
2023-04-09T02:07:46.330Z,61.50
2023-04-09T02:10:55.658Z,60.53
2023-04-09T02:13:58.908Z,76.28
2023-04-09T02:17:01.947Z,72.60
2023-04-09T02:20:04.651Z,62.50
2023-04-09T02:23:06.755Z,84.05
2023-04-09T02:26:08.927Z,84.13
2023-04-09T02:29:11.167Z,74.82
2023-04-09T02:32:13.400Z,69.13
2023-04-09T02:35:15.717Z,66.15
2023-04-09T02:38:17.872Z,79.93
2023-04-09T02:41:20.634Z,65.45
2023-04-09T02:44:24.322Z,73.45
2023-04-09T02:47:27.442Z,70.68
2023-04-09T02:50:29.608Z,63.67
2023-04-09T02:53:31.932Z,72.50
2023-04-09T02:56:34.242Z,73.65
2023-04-09T02:59:36.378Z,72.05
2023-04-09T03:02:38.654Z,75.68
2023-04-09T03:05:40.833Z,62.13
2023-04-09T03:08:43.103Z,69.72
2023-04-09T03:11:45.138Z,74.32
2023-04-09T03:14:47.220Z,65.07
2023-04-09T03:17:49.501Z,75.03
2023-04-09T03:20:51.808Z,75.15
2023-04-09T03:23:53.957Z,75.15
2023-04-09T03:26:57.673Z,74.10
2023-04-09T03:30:00.490Z,74.20
2023-04-09T03:33:10.120Z,80.97
2023-04-09T03:36:28.110Z,68.97
2023-04-09T03:39:34.115Z,72.05
2023-04-09T03:42:37.579Z,79.38
2023-04-09T03:45:41.534Z,70.97
2023-04-09T03:48:55.051Z,78.80
2023-04-09T03:52:09.344Z,72.65
2023-04-09T03:55:16.312Z,82.68
2023-04-09T03:58:18.927Z,76.75
2023-04-09T04:01:21.628Z,76.53
2023-04-09T04:04:34.089Z,69.22
2023-04-09T04:07:39.569Z,69.70
2023-04-09T04:10:46.156Z,68.75
2023-04-09T04:13:51.046Z,72.28
2023-04-09T04:16:53.377Z,72.63
2023-04-09T04:19:58.321Z,70.20
2023-04-09T04:23:00.517Z,73.65
2023-04-09T04:26:10.174Z,72.38
2023-04-09T04:29:12.762Z,66.55
2023-04-09T04:32:27.408Z,70.43
2023-04-09T04:35:30.733Z,69.22
2023-04-09T04:38:36.962Z,72.07
2023-04-09T04:41:42.974Z,72.32
2023-04-09T04:44:52.264Z,69.05
2023-04-09T04:48:24.005Z,55.90
2023-04-09T04:51:29.334Z,63.63
2023-04-09T04:54:42.864Z,57.40
2023-04-09T04:57:53.420Z,60.28
2023-04-09T05:01:01.321Z,64.15
2023-04-09T05:04:04.778Z,62.33
2023-04-09T05:07:09.159Z,68.07
2023-04-09T05:10:21.979Z,57.67
2023-04-09T05:13:25.081Z,62.25
2023-04-09T05:16:28.130Z,54.80
2023-04-09T05:19:37.474Z,58.35
2023-04-09T05:22:43.066Z,59.97
2023-04-09T05:25:51.658Z,60.42
2023-04-09T05:29:11.569Z,64.20
2023-04-09T05:32:14.127Z,64.53
2023-04-09T05:35:16.224Z,67.07
2023-04-09T05:38:19.601Z,65.97
2023-04-09T05:41:29.927Z,73.85
2023-04-09T05:44:50.609Z,66.28
2023-04-09T05:47:56.144Z,65.57
2023-04-09T05:51:01.020Z,67.95
2023-04-09T05:54:04.350Z,63.80
2023-04-09T05:57:11.508Z,60.70
2023-04-09T06:00:18.606Z,66.97
2023-04-09T06:03:25.317Z,68.80
2023-04-09T06:06:34.092Z,71.93
2023-04-09T06:09:39.695Z,51.85
2023-04-09T06:12:45.566Z,53.63
2023-04-09T06:15:48.415Z,50.17
2023-04-09T06:18:54.325Z,50.38
2023-04-09T06:21:59.017Z,46.15
2023-04-09T06:25:01.275Z,53.55
2023-04-09T06:28:03.415Z,61.35
2023-04-09T06:31:05.533Z,68.15
2023-04-09T06:34:07.949Z,70.15
2023-04-09T06:37:10.213Z,69.32
2023-04-09T06:40:12.685Z,59.97
2023-04-09T06:43:14.910Z,62.90
2023-04-09T06:46:26.950Z,61.35
2023-04-09T06:49:29.258Z,63.83
2023-04-09T06:52:31.788Z,67.05
2023-04-09T06:55:33.934Z,62.88
2023-04-09T06:58:36.476Z,64.60
2023-04-09T07:01:41.157Z,70.88
2023-04-09T07:04:44.103Z,76.32
2023-04-09T07:07:47.089Z,67.47
2023-04-09T07:10:49.717Z,61.03
2023-04-09T07:13:52.851Z,74.68
2023-04-09T07:16:55.388Z,74.05
2023-04-09T07:19:57.597Z,69.00
2023-04-09T07:23:01.221Z,57.05
2023-04-09T07:26:06.650Z,69.75
2023-04-09T07:29:08.735Z,61.85
2023-04-09T07:32:10.925Z,64.88
2023-04-09T07:35:13.442Z,75.32
2023-04-09T07:38:16.520Z,59.20
2023-04-09T07:41:18.840Z,55.90
2023-04-09T07:44:20.908Z,54.78
2023-04-09T07:47:24.358Z,46.13
2023-04-09T07:50:27.222Z,58.72
2023-04-09T07:53:29.471Z,64.10
2023-04-09T07:56:35.768Z,52.17
2023-04-09T07:59:38.168Z,51.45
2023-04-09T08:02:40.560Z,55.58
2023-04-09T08:05:44.391Z,53.40
2023-04-09T08:08:47.601Z,54.95
2023-04-09T08:11:50.537Z,66.80
2023-04-09T08:14:52.983Z,55.25
2023-04-09T08:17:55.147Z,55.78
2023-04-09T08:20:57.825Z,57.78
2023-04-09T08:24:04.761Z,55.17
2023-04-09T08:27:06.887Z,56.13
2023-04-09T08:30:09.964Z,54.83
2023-04-09T08:33:12.248Z,57.80
2023-04-09T08:36:16.204Z,51.72
2023-04-09T08:39:21.289Z,49.28
2023-04-09T08:42:25.851Z,48.58
2023-04-09T08:45:28.290Z,53.85
2023-04-09T08:48:30.511Z,50.55
2023-04-09T08:51:32.771Z,53.00
2023-04-09T08:54:35.697Z,44.50
2023-04-09T08:57:42.083Z,52.58
2023-04-09T09:00:44.794Z,57.10
2023-04-09T09:04:04.634Z,40.13
2023-04-09T09:07:07.548Z,56.70
2023-04-09T09:10:10.043Z,52.15
2023-04-09T09:13:26.325Z,50.00
2023-04-09T09:16:29.038Z,45.42
2023-04-09T09:19:36.701Z,50.22
2023-04-09T09:23:00.128Z,43.33
2023-04-09T09:26:14.410Z,51.17
2023-04-09T09:29:17.659Z,52.40
2023-04-09T09:32:22.198Z,45.33
2023-04-09T09:35:24.510Z,45.65
2023-04-09T09:38:27.200Z,39.45
2023-04-09T09:41:29.558Z,45.88
2023-04-09T09:44:33.478Z,44.47
2023-04-09T09:47:36.841Z,40.20
2023-04-09T09:50:48.451Z,38.53
2023-04-09T09:53:55.763Z,49.97
2023-04-09T09:57:04.874Z,46.35
2023-04-09T10:00:12.696Z,50.97
2023-04-09T10:03:20.211Z,38.90
2023-04-09T10:06:23.416Z,38.22
2023-04-09T10:09:28.227Z,50.28
2023-04-09T10:12:32.844Z,49.75
2023-04-09T10:15:35.118Z,38.60
2023-04-09T10:18:37.265Z,36.42
2023-04-09T10:21:57.890Z,32.58
2023-04-09T10:25:00.195Z,39.88
2023-04-09T10:28:15.716Z,40.38
2023-04-09T10:31:21.258Z,33.47
2023-04-09T10:34:30.888Z,35.63
2023-04-09T10:37:33.039Z,29.60
2023-04-09T10:40:47.418Z,30.17
2023-04-09T10:43:51.071Z,35.88
2023-04-09T10:46:56.905Z,32.30
2023-04-09T10:49:59.130Z,40.15
2023-04-09T10:53:04.117Z,34.20
2023-04-09T10:56:16.437Z,30.02
2023-04-09T10:59:18.789Z,28.77
2023-04-09T11:02:23.938Z,63.42
2023-04-09T11:05:40.045Z,32.63
2023-04-09T11:08:44.572Z,29.63
2023-04-09T11:11:54.950Z,30.52
2023-04-09T11:14:57.623Z,42.35
2023-04-09T11:18:03.128Z,36.47
2023-04-09T11:21:08.180Z,29.85
2023-04-09T11:24:12.783Z,41.00
2023-04-09T11:27:17.331Z,33.63
2023-04-09T11:30:20.933Z,36.22
2023-04-09T11:33:34.766Z,28.13
2023-04-09T11:36:38.377Z,34.35
2023-04-09T11:39:49.112Z,24.25
2023-04-09T11:42:55.658Z,29.15
2023-04-09T11:46:02.284Z,30.70
2023-04-09T11:49:05.782Z,35.80
2023-04-09T11:52:09.833Z,28.88
2023-04-09T11:55:13.929Z,26.05
2023-04-09T11:58:16.940Z,44.42
2023-04-09T12:01:22.576Z,31.65
2023-04-09T12:04:25.671Z,27.33
2023-04-09T12:07:33.005Z,28.17
2023-04-09T12:10:53.729Z,37.17
2023-04-09T12:14:00.339Z,34.05
2023-04-09T12:17:06.716Z,37.00
2023-04-09T12:20:12.244Z,33.90
2023-04-09T12:23:17.421Z,28.08
2023-04-09T12:26:21.217Z,29.52
2023-04-09T12:29:23.307Z,37.78
2023-04-09T12:32:28.129Z,27.90
2023-04-09T12:35:32.926Z,35.97
2023-04-09T12:38:35.526Z,26.40
2023-04-09T12:41:39.323Z,30.58
2023-04-09T12:44:45.776Z,37.22
2023-04-09T12:47:54.500Z,34.47
2023-04-09T12:51:01.985Z,38.50
2023-04-09T12:54:13.052Z,33.08
2023-04-09T12:57:16.000Z,45.90
2023-04-09T13:00:18.511Z,33.80
2023-04-09T13:03:22.190Z,34.55
2023-04-09T13:06:25.380Z,37.45
2023-04-09T13:09:29.493Z,27.65
2023-04-09T13:12:33.799Z,25.92
2023-04-09T13:15:44.083Z,25.42
2023-04-09T13:18:46.767Z,34.58
2023-04-09T13:21:53.380Z,35.20
2023-04-09T13:28:01.861Z,32.17
2023-04-09T13:31:04.958Z,24.95
2023-04-09T13:34:10.266Z,37.85
2023-04-09T13:37:12.765Z,34.45
2023-04-09T13:40:14.912Z,26.08
2023-04-09T13:43:17.082Z,24.70
2023-04-09T13:46:19.559Z,29.15
2023-04-09T13:49:22.297Z,29.88
2023-04-09T13:52:29.685Z,23.80
2023-04-09T13:55:37.718Z,28.52
2023-04-09T13:58:40.572Z,26.30
2023-04-09T14:01:42.790Z,24.20
2023-04-09T14:04:45.777Z,30.67
2023-04-09T14:07:48.413Z,27.02
2023-04-09T14:10:51.409Z,29.38
2023-04-09T14:13:56.234Z,23.88
2023-04-09T14:16:58.433Z,29.80
2023-04-09T14:20:06.202Z,28.75
2023-04-09T14:24:00.563Z,42.70
2023-04-09T14:27:03.348Z,28.75
2023-04-09T14:30:10.145Z,35.28
2023-04-09T14:33:15.344Z,28.95
2023-04-09T14:36:17.881Z,31.83
2023-04-09T14:39:19.860Z,28.98
2023-04-09T14:42:22.143Z,25.65
2023-04-09T14:45:24.308Z,23.00
2023-04-09T14:48:26.594Z,36.35
2023-04-09T14:51:32.856Z,29.55
2023-04-09T14:54:37.885Z,28.85
2023-04-09T14:57:40.788Z,25.55
2023-04-09T15:00:45.051Z,26.77
2023-04-09T15:03:47.908Z,22.40
2023-04-09T15:06:52.590Z,48.22
2023-04-09T15:09:54.899Z,34.78
2023-04-09T15:12:57.008Z,62.75
2023-04-09T15:15:59.246Z,38.00
2023-04-09T15:19:02.965Z,42.72
2023-04-09T15:22:08.392Z,47.15
2023-04-09T15:25:14.984Z,31.42
2023-04-09T15:28:19.287Z,37.63
2023-04-09T15:31:21.859Z,36.58
2023-04-09T15:34:25.947Z,22.55
2023-04-09T15:37:28.014Z,27.50
2023-04-09T15:40:32.113Z,28.33
2023-04-09T15:43:34.293Z,25.92
2023-04-09T15:46:38.371Z,21.98
2023-04-09T15:49:40.833Z,25.58
2023-04-09T15:52:43.153Z,35.00
2023-04-09T15:55:45.576Z,22.05
2023-04-09T15:58:47.781Z,30.40
2023-04-09T16:01:49.973Z,36.05
2023-04-09T16:04:53.279Z,37.38
2023-04-09T16:07:58.293Z,34.35
2023-04-09T16:11:01.826Z,33.00
2023-04-09T16:14:05.915Z,30.80
2023-04-09T16:17:08.230Z,35.78
2023-04-09T16:20:10.829Z,45.90
2023-04-09T16:23:13.164Z,46.20
2023-04-09T16:26:16.318Z,38.17
2023-04-09T16:29:18.497Z,42.95
2023-04-09T16:32:22.263Z,39.83
2023-04-09T16:35:24.406Z,39.17
2023-04-09T16:38:27.731Z,33.22
2023-04-09T16:41:30.095Z,30.42
2023-04-09T16:44:32.175Z,38.15
2023-04-09T16:47:34.374Z,39.55
2023-04-09T16:50:46.143Z,45.05
2023-04-09T16:53:50.525Z,60.10
2023-04-09T16:56:53.450Z,44.60
2023-04-09T16:59:57.986Z,41.60
2023-04-09T17:03:00.751Z,44.25
2023-04-09T17:06:06.862Z,47.40
2023-04-09T17:09:09.976Z,62.15
2023-04-09T17:12:21.885Z,53.83
2023-04-09T17:15:26.054Z,39.72
2023-04-09T17:18:32.389Z,44.65
2023-04-09T17:21:39.477Z,45.60
2023-04-09T17:24:55.331Z,58.95
2023-04-09T17:28:02.652Z,54.83
2023-04-09T17:31:16.223Z,55.67
2023-04-09T17:34:18.581Z,74.70
2023-04-09T17:37:20.758Z,66.32
2023-04-09T17:40:33.775Z,53.92
2023-04-09T17:43:37.362Z,60.20
2023-04-09T17:46:39.923Z,55.33
2023-04-09T17:49:42.653Z,62.72
2023-04-09T17:52:49.708Z,61.83
2023-04-09T17:55:52.542Z,65.65
2023-04-09T17:58:55.187Z,59.22
2023-04-09T18:01:59.138Z,66.93
2023-04-09T18:05:04.684Z,63.47
2023-04-09T18:08:07.547Z,63.13
2023-04-09T18:11:13.101Z,72.90
2023-04-09T18:14:16.221Z,65.22
2023-04-09T18:17:19.313Z,74.80
2023-04-09T18:20:23.516Z,68.28
2023-04-09T18:23:27.244Z,71.35
2023-04-09T18:26:30.496Z,67.10
2023-04-09T18:29:34.297Z,59.50
2023-04-09T18:32:36.385Z,65.22
2023-04-09T18:35:40.987Z,69.53
2023-04-09T18:38:49.086Z,76.60
2023-04-09T18:41:51.213Z,68.95
2023-04-09T18:44:55.596Z,70.50
2023-04-09T18:47:59.502Z,84.47
2023-04-09T18:51:03.334Z,75.88
2023-04-09T18:54:06.015Z,70.97
2023-04-09T18:57:08.827Z,59.97
2023-04-09T19:00:11.577Z,67.82
2023-04-09T19:03:15.012Z,61.97
2023-04-09T19:06:20.096Z,65.85
2023-04-09T19:09:22.417Z,68.53
2023-04-09T19:12:27.077Z,65.07
2023-04-09T19:15:29.704Z,67.57
2023-04-09T19:18:34.649Z,64.82
2023-04-09T19:21:37.013Z,70.78
2023-04-09T19:24:39.382Z,58.22
2023-04-09T19:27:44.578Z,58.53
2023-04-09T19:30:50.517Z,69.78
2023-04-09T19:33:56.106Z,70.75
2023-04-09T19:36:59.570Z,60.10
2023-04-09T19:40:04.682Z,67.43
2023-04-09T19:43:07.057Z,66.65
2023-04-09T19:46:12.090Z,62.17
2023-04-09T19:49:15.459Z,63.30
2023-04-09T19:52:17.687Z,55.03
2023-04-09T19:55:20.144Z,76.20
2023-04-09T19:58:22.211Z,62.72
2023-04-09T20:01:28.598Z,70.00
2023-04-09T20:04:31.174Z,67.95
2023-04-09T20:07:33.178Z,72.78
2023-04-09T20:10:42.937Z,71.45
2023-04-09T20:13:47.211Z,67.40
2023-04-09T20:16:50.313Z,68.88
2023-04-09T20:19:52.537Z,69.35
2023-04-09T20:22:56.409Z,67.28
2023-04-09T20:26:00.447Z,71.05
2023-04-09T20:29:02.798Z,60.75
2023-04-09T20:32:05.070Z,74.57
2023-04-09T20:35:09.514Z,70.55
2023-04-09T20:38:29.252Z,69.22
2023-04-09T20:41:34.058Z,70.30
2023-04-09T20:44:37.941Z,68.38
2023-04-09T20:47:40.098Z,61.50
2023-04-09T20:50:42.752Z,69.35
2023-04-09T20:53:45.664Z,67.88
2023-04-09T20:56:47.663Z,60.25
2023-04-09T20:59:50.331Z,61.70
2023-04-09T21:02:52.618Z,69.38
2023-04-09T21:05:55.821Z,65.38
2023-04-09T21:08:59.671Z,71.88
2023-04-09T21:12:06.238Z,67.72
2023-04-09T21:15:08.840Z,69.00
2023-04-09T21:18:11.126Z,72.28
2023-04-09T21:21:14.469Z,64.53
2023-04-09T21:24:16.913Z,66.78
2023-04-09T21:27:20.210Z,54.00
2023-04-09T21:30:22.394Z,62.30
2023-04-09T21:33:26.340Z,66.50
2023-04-09T21:36:29.799Z,61.40
2023-04-09T21:39:32.027Z,58.83
2023-04-09T21:42:34.084Z,70.47
2023-04-09T21:45:36.736Z,62.20
2023-04-09T21:48:40.767Z,64.95
2023-04-09T21:51:45.708Z,62.22
2023-04-09T21:54:47.865Z,56.33
2023-04-09T21:57:52.996Z,59.00
2023-04-09T22:00:55.025Z,51.95
2023-04-09T22:03:58.087Z,67.63
2023-04-09T22:07:00.239Z,68.63
2023-04-09T22:10:02.393Z,67.15
2023-04-09T22:13:04.468Z,60.00
2023-04-09T22:16:07.424Z,65.60
2023-04-09T22:19:09.688Z,67.93
2023-04-09T22:22:13.655Z,61.17
2023-04-09T22:25:15.902Z,64.15
2023-04-09T22:28:18.325Z,66.45
2023-04-09T22:31:21.259Z,66.22
2023-04-09T22:34:23.585Z,69.47
2023-04-09T22:37:26.134Z,62.00
2023-04-09T22:40:28.161Z,59.03
2023-04-09T22:43:30.342Z,66.57
2023-04-09T22:46:34.788Z,60.15
2023-04-09T22:49:36.936Z,60.38
2023-04-09T22:52:38.909Z,59.03
2023-04-09T22:55:41.075Z,59.08
2023-04-09T22:58:43.285Z,56.13
2023-04-09T23:01:46.468Z,52.40
2023-04-09T23:04:48.681Z,53.33
2023-04-09T23:07:51.496Z,61.25
2023-04-09T23:10:54.325Z,66.15
2023-04-09T23:13:56.994Z,66.53
2023-04-09T23:16:59.112Z,59.60
2023-04-09T23:20:01.582Z,70.10
2023-04-09T23:23:03.811Z,69.30
2023-04-09T23:26:06.621Z,61.70
2023-04-09T23:29:08.750Z,61.13
2023-04-09T23:32:10.958Z,68.07
2023-04-09T23:35:13.457Z,65.63
2023-04-09T23:38:16.068Z,55.03
2023-04-09T23:41:18.186Z,57.95
2023-04-09T23:44:20.795Z,65.10
2023-04-09T23:47:22.998Z,57.25
2023-04-09T23:50:25.100Z,58.72
2023-04-09T23:53:27.176Z,55.00
2023-04-09T23:56:29.727Z,67.07
2023-04-09T23:59:35.485Z,59.28
